createdAt,value
2022-12-18T00:01:19.115Z,47.00
2022-12-18T00:03:46.582Z,46.65
2022-12-18T00:06:15.513Z,45.50
2022-12-18T00:08:43.180Z,45.63
2022-12-18T00:11:17.881Z,49.75
2022-12-18T00:13:45.098Z,41.65
2022-12-18T00:16:13.967Z,42.88
2022-12-18T00:18:41.397Z,44.63
2022-12-18T00:21:09.425Z,45.33
2022-12-18T00:23:37.144Z,44.97
2022-12-18T00:26:10.916Z,48.40
2022-12-18T00:28:37.808Z,45.92
2022-12-18T00:31:05.607Z,44.33
2022-12-18T00:33:32.620Z,44.35
2022-12-18T00:36:06.586Z,50.10
2022-12-18T00:38:34.026Z,45.45
2022-12-18T00:41:01.006Z,47.40
2022-12-18T00:43:28.433Z,47.53
2022-12-18T00:45:55.477Z,45.40
2022-12-18T00:48:22.553Z,45.95
2022-12-18T00:50:50.106Z,45.55
2022-12-18T00:53:17.092Z,46.63
2022-12-18T00:55:44.113Z,42.20
2022-12-18T00:58:11.368Z,45.53
2022-12-18T01:00:39.052Z,47.20
2022-12-18T01:03:06.194Z,43.92
2022-12-18T01:05:33.307Z,48.20
2022-12-18T01:08:00.301Z,48.80
2022-12-18T01:10:27.221Z,44.90
2022-12-18T01:12:57.903Z,41.80
2022-12-18T01:15:24.769Z,41.10
2022-12-18T01:17:53.638Z,41.75
2022-12-18T01:20:20.853Z,41.67
2022-12-18T01:22:47.738Z,46.65
2022-12-18T01:25:16.110Z,44.30
2022-12-18T01:27:44.032Z,40.00
2022-12-18T01:30:12.356Z,45.40
2022-12-18T01:32:39.139Z,40.80
2022-12-18T01:35:06.673Z,44.22
2022-12-18T01:37:33.524Z,41.13
2022-12-18T01:40:00.369Z,37.20
2022-12-18T01:42:27.279Z,39.53
2022-12-18T01:44:56.988Z,40.13
2022-12-18T01:47:56.361Z,39.72
2022-12-18T01:50:37.388Z,37.55
2022-12-18T01:53:08.599Z,34.30
2022-12-18T01:55:42.185Z,38.67
2022-12-18T01:58:10.162Z,37.97
2022-12-18T02:00:37.301Z,39.80
2022-12-18T02:03:04.248Z,34.72
2022-12-18T02:05:39.853Z,34.28
2022-12-18T02:08:11.469Z,38.20
2022-12-18T02:10:42.761Z,38.53
2022-12-18T02:13:24.446Z,35.75
2022-12-18T02:16:07.008Z,33.03
2022-12-18T02:18:39.609Z,35.03
2022-12-18T02:21:12.483Z,34.77
2022-12-18T02:23:52.653Z,32.08
2022-12-18T02:26:48.053Z,33.95
2022-12-18T02:29:22.441Z,32.15
2022-12-18T02:31:52.808Z,36.50
2022-12-18T02:34:20.876Z,32.17
2022-12-18T02:36:47.736Z,30.73
2022-12-18T02:39:14.634Z,30.23
2022-12-18T02:41:51.036Z,32.45
2022-12-18T02:44:18.708Z,32.58
2022-12-18T02:46:52.639Z,31.15
2022-12-18T02:49:44.106Z,26.92
2022-12-18T02:52:31.487Z,28.10
2022-12-18T02:55:19.570Z,30.80
2022-12-18T02:58:04.368Z,31.15
2022-12-18T03:00:40.613Z,32.95
2022-12-18T03:03:11.717Z,29.98
2022-12-18T03:05:53.500Z,30.95
2022-12-18T03:08:31.900Z,30.80
2022-12-18T03:11:05.302Z,29.65
2022-12-18T03:13:48.534Z,33.15
2022-12-18T03:16:22.241Z,29.30
2022-12-18T03:18:58.399Z,28.35
2022-12-18T03:21:40.261Z,27.33
2022-12-18T03:24:08.950Z,25.13
2022-12-18T03:26:36.831Z,27.42
2022-12-18T03:29:08.465Z,30.15
2022-12-18T03:31:36.316Z,28.77
2022-12-18T03:34:10.361Z,25.55
2022-12-18T03:36:42.880Z,25.00
2022-12-18T03:39:09.864Z,26.25
2022-12-18T03:41:53.893Z,24.33
2022-12-18T03:44:51.981Z,30.87
2022-12-18T03:47:44.953Z,29.95
2022-12-18T03:53:00.429Z,32.22
2022-12-18T03:55:28.734Z,26.08
2022-12-18T03:58:00.395Z,29.08
2022-12-18T04:00:33.981Z,27.83
2022-12-18T04:03:07.248Z,29.98
2022-12-18T04:05:41.501Z,29.35
2022-12-18T04:08:08.512Z,33.28
2022-12-18T04:10:41.567Z,30.63
2022-12-18T04:13:08.444Z,30.63
2022-12-18T04:15:36.781Z,30.05
2022-12-18T04:18:05.198Z,29.83
2022-12-18T04:20:39.629Z,30.55
2022-12-18T04:23:06.496Z,29.70
2022-12-18T04:25:33.926Z,30.20
2022-12-18T04:28:11.520Z,29.52
2022-12-18T04:30:39.368Z,30.17
2022-12-18T04:33:12.598Z,32.33
2022-12-18T04:35:40.851Z,31.05
2022-12-18T04:38:09.321Z,32.45
2022-12-18T04:40:36.805Z,29.48
2022-12-18T04:43:08.253Z,31.27
2022-12-18T04:45:35.097Z,31.08
2022-12-18T04:48:02.572Z,31.67
2022-12-18T04:50:29.518Z,28.52
2022-12-18T04:52:57.073Z,35.55
2022-12-18T04:55:27.393Z,31.92
2022-12-18T04:57:54.288Z,31.52
2022-12-18T05:00:21.169Z,31.05
2022-12-18T05:02:48.203Z,31.60
2022-12-18T05:05:15.190Z,32.63
2022-12-18T05:07:42.040Z,29.30
2022-12-18T05:10:09.141Z,31.70
2022-12-18T05:12:57.196Z,33.83
2022-12-18T05:15:24.076Z,32.92
2022-12-18T05:17:50.910Z,36.85
2022-12-18T05:20:19.132Z,30.25
2022-12-18T05:22:46.001Z,34.03
2022-12-18T05:25:12.797Z,33.90
2022-12-18T05:27:39.687Z,31.88
2022-12-18T05:30:07.091Z,35.47
2022-12-18T05:32:34.059Z,36.00
2022-12-18T05:35:00.867Z,32.33
2022-12-18T05:37:27.818Z,39.17
2022-12-18T05:39:54.621Z,34.35
2022-12-18T05:42:21.507Z,33.05
2022-12-18T05:44:48.525Z,32.50
2022-12-18T05:47:15.350Z,28.45
2022-12-18T05:49:42.145Z,34.75
2022-12-18T05:52:09.925Z,35.05
2022-12-18T05:54:36.755Z,40.05
2022-12-18T05:57:03.717Z,36.22
2022-12-18T05:59:30.560Z,31.30
2022-12-18T06:01:57.576Z,37.10
2022-12-18T06:04:24.507Z,34.08
2022-12-18T06:06:51.347Z,39.95
2022-12-18T06:09:18.180Z,35.70
2022-12-18T06:11:45.038Z,33.42
2022-12-18T06:14:11.932Z,37.58
2022-12-18T06:16:38.832Z,34.78
2022-12-18T06:19:06.114Z,34.25
2022-12-18T06:21:33.077Z,35.05
2022-12-18T06:24:01.128Z,32.67
2022-12-18T06:26:28.707Z,35.35
2022-12-18T06:28:55.857Z,36.35
2022-12-18T06:31:22.813Z,34.92
2022-12-18T06:33:49.753Z,30.50
2022-12-18T06:36:17.586Z,29.20
2022-12-18T06:38:44.660Z,35.80
2022-12-18T06:41:16.575Z,32.10
2022-12-18T06:43:43.919Z,35.30
2022-12-18T06:46:11.090Z,34.88
2022-12-18T06:48:38.067Z,34.13
2022-12-18T06:51:05.071Z,31.65
2022-12-18T06:53:32.761Z,32.35
2022-12-18T06:56:09.256Z,30.40
2022-12-18T06:58:37.285Z,31.38
2022-12-18T07:01:05.440Z,31.63
2022-12-18T07:03:32.480Z,30.73
2022-12-18T07:05:59.351Z,30.08
2022-12-18T07:08:26.512Z,33.50
2022-12-18T07:10:56.385Z,30.25
2022-12-18T07:13:23.628Z,30.88
2022-12-18T07:15:50.465Z,34.35
2022-12-18T07:18:17.271Z,33.83
2022-12-18T07:20:45.123Z,30.30
2022-12-18T07:23:12.845Z,30.75
2022-12-18T07:25:40.431Z,32.08
2022-12-18T07:28:07.780Z,34.20
2022-12-18T07:30:38.431Z,34.03
2022-12-18T07:33:05.395Z,34.53
2022-12-18T07:35:33.403Z,29.58
2022-12-18T07:38:03.150Z,32.13
2022-12-18T07:40:29.955Z,30.48
2022-12-18T07:42:56.779Z,31.50
2022-12-18T07:45:23.586Z,35.15
2022-12-18T07:47:50.487Z,36.03
2022-12-18T07:50:17.411Z,38.05
2022-12-18T07:52:44.331Z,34.35
2022-12-18T07:55:11.208Z,33.67
2022-12-18T07:57:57.639Z,31.58
2022-12-18T08:00:25.103Z,31.58
2022-12-18T08:02:52.137Z,34.88
2022-12-18T08:05:19.043Z,36.35
2022-12-18T08:07:46.048Z,32.58
2022-12-18T08:10:12.884Z,34.28
2022-12-18T08:12:39.796Z,34.97
2022-12-18T08:15:07.268Z,34.42
2022-12-18T08:17:34.214Z,31.67
2022-12-18T08:20:01.908Z,35.22
2022-12-18T08:22:28.749Z,33.25
2022-12-18T08:24:55.664Z,31.52
2022-12-18T08:27:30.291Z,31.92
2022-12-18T08:29:58.166Z,35.35
2022-12-18T08:32:25.878Z,33.55
2022-12-18T08:34:52.741Z,34.22
2022-12-18T08:37:19.805Z,34.05
2022-12-18T08:39:46.785Z,33.05
2022-12-18T08:42:31.850Z,33.10
2022-12-18T08:44:58.768Z,35.95
2022-12-18T08:47:27.062Z,35.75
2022-12-18T08:49:53.955Z,32.80
2022-12-18T08:52:20.802Z,34.05
2022-12-18T08:54:47.724Z,33.63
2022-12-18T08:57:14.602Z,34.33
2022-12-18T08:59:41.496Z,34.60
2022-12-18T09:02:11.343Z,33.15
2022-12-18T09:04:38.393Z,34.17
2022-12-18T09:07:07.053Z,36.58
2022-12-18T09:09:33.891Z,36.13
2022-12-18T09:12:00.756Z,32.50
2022-12-18T09:14:27.573Z,35.00
2022-12-18T09:16:54.448Z,35.00
2022-12-18T09:19:21.330Z,32.30
2022-12-18T09:21:48.652Z,32.45
2022-12-18T09:24:15.681Z,35.30
2022-12-18T09:26:43.872Z,31.80
2022-12-18T09:29:14.268Z,36.90
2022-12-18T09:31:41.706Z,34.33
2022-12-18T09:34:08.645Z,32.38
2022-12-18T09:36:35.591Z,34.08
2022-12-18T09:39:06.444Z,34.20
2022-12-18T09:41:45.210Z,29.38
2022-12-18T09:44:12.274Z,32.63
2022-12-18T09:46:43.679Z,32.47
2022-12-18T09:49:13.814Z,31.50
2022-12-18T09:51:51.218Z,32.88
2022-12-18T09:54:33.975Z,31.27
2022-12-18T09:57:00.865Z,31.17
2022-12-18T09:59:36.732Z,32.08
2022-12-18T10:02:18.061Z,31.85
2022-12-18T10:04:45.642Z,33.67
2022-12-18T10:07:24.826Z,31.23
2022-12-18T10:10:17.866Z,25.90
2022-12-18T10:13:06.391Z,35.95
2022-12-18T10:16:11.649Z,32.05
2022-12-18T10:19:12.683Z,30.25
2022-12-18T10:22:00.953Z,31.75
2022-12-18T10:24:44.487Z,27.50
2022-12-18T10:27:22.977Z,31.80
2022-12-18T10:29:50.032Z,32.58
2022-12-18T10:32:24.365Z,27.48
2022-12-18T10:34:59.656Z,29.63
2022-12-18T10:37:30.006Z,29.25
2022-12-18T10:40:16.642Z,34.63
2022-12-18T10:42:47.031Z,28.15
2022-12-18T10:45:18.509Z,30.67
2022-12-18T10:47:47.598Z,29.65
2022-12-18T10:51:10.242Z,32.58
2022-12-18T10:55:57.078Z,29.23
2022-12-18T10:58:27.696Z,27.58
2022-12-18T11:01:10.907Z,30.00
2022-12-18T11:03:47.640Z,29.17
2022-12-18T11:06:18.130Z,30.25
2022-12-18T11:08:57.963Z,33.67
2022-12-18T11:11:25.172Z,30.58
2022-12-18T11:14:05.041Z,32.55
2022-12-18T11:17:03.106Z,33.50
2022-12-18T11:19:38.765Z,35.28
2022-12-18T11:22:19.100Z,32.20
2022-12-18T11:28:02.453Z,31.20
2022-12-18T11:30:33.457Z,31.50
2022-12-18T11:33:04.713Z,34.75
2022-12-18T11:35:54.126Z,33.10
2022-12-18T11:38:28.344Z,33.10
2022-12-18T11:41:21.560Z,34.28
2022-12-18T11:43:56.433Z,33.70
2022-12-18T11:46:58.682Z,33.85
2022-12-18T11:49:34.709Z,35.43
2022-12-18T11:52:03.776Z,35.40
2022-12-18T11:54:30.961Z,33.55
2022-12-18T11:57:04.850Z,35.65
2022-12-18T11:59:34.466Z,33.97
2022-12-18T12:02:51.441Z,35.22
2022-12-18T12:05:42.888Z,31.30
2022-12-18T12:08:15.868Z,32.53
2022-12-18T12:10:53.325Z,37.08
2022-12-18T12:13:25.912Z,34.30
2022-12-18T12:18:47.459Z,32.20
2022-12-18T12:21:42.851Z,33.28
2022-12-18T12:24:40.698Z,35.60
2022-12-18T12:27:11.608Z,31.88
2022-12-18T12:30:03.498Z,32.90
2022-12-18T12:32:48.644Z,32.13
2022-12-18T12:35:30.865Z,31.20
2022-12-18T12:38:17.345Z,31.83
2022-12-18T12:41:02.176Z,31.23
2022-12-18T12:43:50.253Z,32.90
2022-12-18T12:46:19.221Z,29.77
2022-12-18T12:49:05.545Z,31.05
2022-12-18T12:51:36.770Z,30.33
2022-12-18T12:54:05.415Z,33.95
2022-12-18T12:57:10.430Z,34.58
2022-12-18T12:59:43.434Z,30.13
2022-12-18T13:02:42.676Z,30.58
2022-12-18T13:05:27.017Z,30.42
2022-12-18T13:08:04.373Z,30.13
2022-12-18T13:10:38.796Z,28.25
2022-12-18T13:13:10.481Z,29.77
2022-12-18T13:15:46.279Z,29.35
2022-12-18T13:18:20.877Z,29.70
2022-12-18T13:21:03.288Z,27.75
2022-12-18T13:23:40.275Z,27.67
2022-12-18T13:26:09.220Z,26.52
2022-12-18T13:28:48.534Z,25.77
2022-12-18T13:31:37.482Z,24.80
2022-12-18T13:34:25.840Z,27.08
2022-12-18T13:36:55.011Z,27.95
2022-12-18T13:39:26.698Z,27.67
2022-12-18T13:42:06.022Z,24.55
2022-12-18T13:44:44.345Z,24.25
2022-12-18T13:47:34.722Z,26.15
2022-12-18T13:50:02.775Z,24.85
2022-12-18T13:52:33.180Z,27.13
2022-12-18T13:55:00.862Z,25.25
2022-12-18T13:57:32.201Z,23.60
2022-12-18T13:59:59.608Z,26.90
2022-12-18T14:02:28.500Z,21.70
2022-12-18T14:04:56.474Z,21.40
2022-12-18T14:07:25.136Z,20.77
2022-12-18T14:10:01.940Z,20.10
2022-12-18T14:12:57.431Z,22.05
2022-12-18T14:15:27.666Z,20.63
2022-12-18T14:17:58.043Z,22.77
2022-12-18T14:20:26.164Z,20.85
2022-12-18T14:22:53.244Z,19.38
2022-12-18T14:25:21.451Z,22.38
2022-12-18T14:28:09.521Z,20.98
2022-12-18T14:30:37.115Z,19.67
2022-12-18T14:33:10.932Z,20.77
2022-12-18T14:35:39.417Z,19.45
2022-12-18T14:38:17.518Z,19.38
2022-12-18T14:40:44.677Z,20.35
2022-12-18T14:43:14.790Z,20.35
2022-12-18T14:45:43.832Z,21.15
2022-12-18T14:48:23.415Z,20.23
2022-12-18T14:50:59.052Z,17.77
2022-12-18T14:53:40.847Z,18.13
2022-12-18T14:56:32.355Z,19.27
2022-12-18T14:59:07.111Z,18.60
2022-12-18T15:01:38.350Z,18.98
2022-12-18T15:04:06.427Z,16.55
2022-12-18T15:06:34.465Z,18.48
2022-12-18T15:09:02.794Z,18.50
2022-12-18T15:11:41.706Z,16.73
2022-12-18T15:14:35.858Z,18.55
2022-12-18T15:17:05.029Z,20.02
2022-12-18T15:19:36.251Z,16.98
2022-12-18T15:22:06.665Z,16.27
2022-12-18T15:24:34.018Z,16.52
2022-12-18T15:27:00.901Z,16.90
2022-12-18T15:29:28.063Z,15.10
2022-12-18T15:32:16.778Z,15.23
2022-12-18T15:34:43.633Z,17.63
2022-12-18T15:37:10.534Z,16.27
2022-12-18T15:39:37.369Z,17.15
2022-12-18T15:42:27.625Z,15.27
2022-12-18T15:44:54.488Z,17.30
2022-12-18T15:47:21.296Z,16.02
2022-12-18T15:49:48.162Z,15.25
2022-12-18T15:52:26.879Z,15.98
2022-12-18T15:55:12.473Z,13.90
2022-12-18T15:57:39.354Z,14.82
2022-12-18T16:00:06.774Z,15.48
2022-12-18T16:02:33.707Z,15.05
2022-12-18T16:05:00.674Z,14.48
2022-12-18T16:07:30.592Z,12.95
2022-12-18T16:09:58.854Z,11.35
2022-12-18T16:12:27.380Z,13.98
2022-12-18T16:14:54.387Z,11.15
2022-12-18T16:17:21.182Z,9.32
2022-12-18T16:19:48.041Z,9.77
2022-12-18T16:22:25.673Z,8.70
2022-12-18T16:24:52.944Z,10.50
2022-12-18T16:27:20.237Z,8.55
2022-12-18T16:29:47.190Z,9.95
2022-12-18T16:32:16.451Z,8.95
2022-12-18T16:34:44.568Z,7.10
2022-12-18T16:37:12.380Z,8.50
2022-12-18T16:39:39.543Z,9.57
2022-12-18T16:42:19.666Z,7.25
2022-12-18T16:44:47.048Z,7.68
2022-12-18T16:47:14.982Z,7.72
2022-12-18T16:49:42.882Z,9.88
2022-12-18T16:52:09.717Z,8.45
2022-12-18T16:54:36.858Z,8.23
2022-12-18T16:57:05.391Z,8.15
2022-12-18T16:59:35.007Z,7.97
2022-12-18T17:02:02.066Z,8.32
2022-12-18T17:04:28.988Z,9.68
2022-12-18T17:06:55.934Z,9.07
2022-12-18T17:09:25.672Z,8.95
2022-12-18T17:11:53.328Z,9.60
2022-12-18T17:14:21.664Z,10.40
2022-12-18T17:16:54.249Z,8.63
2022-12-18T17:19:35.508Z,9.43
2022-12-18T17:22:02.541Z,10.50
2022-12-18T17:24:34.509Z,8.80
2022-12-18T17:27:02.777Z,8.77
2022-12-18T17:29:29.681Z,8.70
2022-12-18T17:31:57.234Z,8.35
2022-12-18T17:34:25.522Z,10.10
2022-12-18T17:36:52.372Z,10.85
2022-12-18T17:39:19.996Z,9.68
2022-12-18T17:41:47.448Z,8.73
2022-12-18T17:44:14.296Z,8.73
2022-12-18T17:46:41.331Z,10.32
2022-12-18T17:49:08.354Z,8.55
2022-12-18T17:51:35.324Z,9.40
2022-12-18T17:54:02.200Z,9.02
2022-12-18T17:56:29.120Z,10.65
2022-12-18T17:58:56.030Z,7.75
2022-12-18T18:01:24.367Z,9.30
2022-12-18T18:03:53.779Z,7.85
2022-12-18T18:06:20.957Z,7.72
2022-12-18T18:08:48.044Z,7.90
2022-12-18T18:11:35.074Z,8.48
2022-12-18T18:14:02.087Z,8.13
2022-12-18T18:16:36.936Z,6.80
2022-12-18T18:19:05.893Z,6.88
2022-12-18T18:21:35.057Z,7.57
2022-12-18T18:24:05.428Z,9.10
2022-12-18T18:26:32.537Z,8.18
2022-12-18T18:29:00.076Z,7.72
2022-12-18T18:31:30.019Z,7.22
2022-12-18T18:33:57.242Z,7.38
2022-12-18T18:36:24.394Z,6.85
2022-12-18T18:38:51.744Z,6.93
2022-12-18T18:41:18.901Z,7.97
2022-12-18T18:43:45.907Z,7.70
2022-12-18T18:46:14.202Z,9.73
2022-12-18T18:48:41.234Z,7.80
2022-12-18T18:51:16.096Z,7.60
2022-12-18T18:53:51.709Z,8.63
2022-12-18T18:59:07.786Z,7.50
2022-12-18T19:01:34.936Z,7.78
2022-12-18T19:04:03.367Z,9.15
2022-12-18T19:06:30.364Z,9.20
2022-12-18T19:08:58.603Z,8.35
2022-12-18T19:11:44.739Z,9.07
2022-12-18T19:14:12.894Z,7.60
2022-12-18T19:16:39.806Z,6.80
2022-12-18T19:19:07.091Z,7.10
2022-12-18T19:21:34.820Z,7.72
2022-12-18T19:24:02.661Z,7.03
2022-12-18T19:26:29.805Z,7.75
2022-12-18T19:29:02.106Z,7.80
2022-12-18T19:31:34.838Z,8.43
2022-12-18T19:34:03.326Z,8.73
2022-12-18T19:36:30.524Z,8.95
2022-12-18T19:38:58.896Z,6.78
2022-12-18T19:41:26.123Z,6.90
2022-12-18T19:43:56.123Z,6.75
2022-12-18T19:46:23.830Z,7.63
2022-12-18T19:48:50.758Z,7.97
2022-12-18T19:51:23.507Z,6.70
2022-12-18T19:53:54.938Z,8.70
2022-12-18T19:56:26.049Z,8.93
2022-12-18T19:58:53.509Z,9.10
2022-12-18T20:01:21.284Z,7.82
2022-12-18T20:03:51.716Z,7.95
2022-12-18T20:06:31.904Z,9.68
2022-12-18T20:09:01.146Z,9.38
2022-12-18T20:11:31.909Z,9.05
2022-12-18T20:14:01.877Z,10.25
2022-12-18T20:16:29.098Z,8.55
2022-12-18T20:18:57.153Z,8.95
2022-12-18T20:21:25.205Z,9.90
2022-12-18T20:23:52.312Z,9.70
2022-12-18T20:26:19.392Z,10.98
2022-12-18T20:28:46.510Z,8.02
2022-12-18T20:31:14.176Z,10.05
2022-12-18T20:33:42.238Z,10.85
2022-12-18T20:36:15.288Z,9.50
2022-12-18T20:38:43.601Z,12.30
2022-12-18T20:41:13.629Z,12.73
2022-12-18T20:43:40.933Z,12.63
2022-12-18T20:46:09.771Z,13.00
2022-12-18T20:48:36.785Z,14.43
2022-12-18T20:51:05.930Z,11.30
2022-12-18T20:53:33.512Z,8.40
2022-12-18T20:56:01.531Z,10.85
2022-12-18T20:58:28.478Z,8.93
2022-12-18T21:01:15.413Z,8.90
2022-12-18T21:03:43.135Z,8.48
2022-12-18T21:06:10.500Z,7.50
2022-12-18T21:08:37.563Z,6.75
2022-12-18T21:11:53.378Z,7.80
2022-12-18T21:14:28.093Z,6.43
2022-12-18T21:16:55.513Z,6.10
2022-12-18T21:19:24.528Z,6.15
2022-12-18T21:21:55.652Z,6.13
2022-12-18T21:24:22.559Z,5.88
2022-12-18T21:26:49.502Z,6.25
2022-12-18T21:29:20.339Z,5.32
2022-12-18T21:31:47.338Z,5.68
2022-12-18T21:34:21.649Z,5.75
2022-12-18T21:36:48.686Z,6.32
2022-12-18T21:39:15.889Z,6.68
2022-12-18T21:42:01.299Z,7.22
2022-12-18T21:44:28.289Z,6.00
2022-12-18T21:47:00.615Z,6.13
2022-12-18T21:49:33.475Z,5.45
2022-12-18T21:52:00.623Z,7.10
2022-12-18T21:54:28.183Z,6.75
2022-12-18T21:57:02.394Z,7.63
2022-12-18T21:59:34.026Z,5.97
2022-12-18T22:02:06.008Z,6.37
2022-12-18T22:04:33.022Z,4.07
2022-12-18T22:07:07.009Z,5.70
2022-12-18T22:09:34.207Z,5.85
2022-12-18T22:12:01.109Z,5.70
2022-12-18T22:14:28.173Z,4.95
2022-12-18T22:16:57.315Z,5.22
2022-12-18T22:19:25.086Z,5.40
2022-12-18T22:21:52.141Z,5.20
2022-12-18T22:24:21.469Z,6.07
2022-12-18T22:26:48.655Z,5.07
2022-12-18T22:29:35.580Z,4.35
2022-12-18T22:32:03.592Z,4.72
2022-12-18T22:34:34.473Z,6.32
2022-12-18T22:37:03.783Z,4.20
2022-12-18T22:39:30.705Z,4.68
2022-12-18T22:41:57.916Z,4.57
2022-12-18T22:44:24.870Z,4.40
2022-12-18T22:47:00.802Z,4.75
2022-12-18T22:49:33.901Z,5.05
2022-12-18T22:52:02.594Z,4.45
2022-12-18T22:54:29.542Z,5.68
2022-12-18T22:56:56.768Z,5.63
2022-12-18T22:59:23.958Z,6.78
2022-12-18T23:01:52.917Z,5.32
2022-12-18T23:04:28.567Z,6.57
2022-12-18T23:07:03.137Z,6.65
2022-12-18T23:09:30.054Z,6.78
2022-12-18T23:11:56.982Z,6.38
2022-12-18T23:14:23.844Z,6.90
2022-12-18T23:16:51.476Z,8.18
2022-12-18T23:19:20.246Z,6.38
2022-12-18T23:21:47.327Z,8.73
2022-12-18T23:24:14.411Z,7.05
2022-12-18T23:26:41.372Z,10.85
2022-12-18T23:29:08.165Z,7.00
2022-12-18T23:31:36.533Z,8.23
2022-12-18T23:34:03.854Z,6.47
2022-12-18T23:36:30.843Z,7.68
2022-12-18T23:39:04.512Z,7.85
2022-12-18T23:41:31.956Z,5.45
2022-12-18T23:43:59.632Z,7.05
2022-12-18T23:46:27.409Z,5.47
2022-12-18T23:48:57.603Z,7.18
2022-12-18T23:51:25.646Z,7.78
2022-12-18T23:53:56.685Z,6.53
2022-12-18T23:56:23.634Z,6.93
2022-12-18T23:58:52.035Z,4.88
